Time;durP1;ratioP1;P1;durP2;ratioP2;P2;SDS_P1;SDS_P2;PMS_P1;PMS_P2;Temp;Humidity;BMP_temperature;BMP_pressure;BME280_temperature;BME280_humidity;BME280_pressure;Samples;Min_cycle;Max_cycle;Signal;HPM_P1;HPM_P2
2023/04/19 00:00:43;;;;;;;11.87;5.77;;;11.00;99.90;;;;;;5035536;28;20207;-67
2023/04/19 00:03:10;;;;;;;8.67;4.67;;;10.90;99.90;;;;;;5035163;28;20237;-67
2023/04/19 00:05:37;;;;;;;6.93;4.33;;;10.80;99.90;;;;;;5052811;28;20516;-71
2023/04/19 00:08:05;;;;;;;7.00;4.60;;;10.80;99.90;;;;;;5035432;28;20190;-68
2023/04/19 00:10:34;;;;;;;7.17;4.73;;;10.80;99.90;;;;;;5032735;28;20289;-73
2023/04/19 00:13:01;;;;;;;7.43;4.57;;;10.80;99.90;;;;;;5027272;28;20195;-73
2023/04/19 00:15:28;;;;;;;8.13;4.97;;;10.80;99.90;;;;;;5035091;28;20205;-73
2023/04/19 00:17:55;;;;;;;6.57;4.50;;;10.80;99.90;;;;;;5033190;28;20188;-72
2023/04/19 00:20:22;;;;;;;6.83;4.43;;;10.70;99.90;;;;;;5015821;28;20199;-72
2023/04/19 00:22:49;;;;;;;6.67;4.40;;;10.70;99.90;;;;;;5015390;28;20245;-71
2023/04/19 00:25:16;;;;;;;6.77;4.30;;;10.60;99.90;;;;;;5033328;28;20199;-73
2023/04/19 00:27:43;;;;;;;7.13;4.57;;;10.60;99.90;;;;;;5032917;28;20207;-73
2023/04/19 00:30:11;;;;;;;7.10;4.43;;;10.60;99.90;;;;;;5015088;28;20238;-73
2023/04/19 00:32:40;;;;;;;7.00;4.37;;;10.60;99.90;;;;;;5032791;28;20190;-73
2023/04/19 00:35:08;;;;;;;6.13;3.97;;;10.40;99.90;;;;;;5046716;28;20588;-73
2023/04/19 00:37:35;;;;;;;11.60;5.13;;;10.30;99.90;;;;;;5052835;28;20286;-73
2023/04/19 00:40:03;;;;;;;7.43;4.13;;;10.30;99.90;;;;;;5053120;28;20205;-74
2023/04/19 00:42:30;;;;;;;7.83;4.37;;;10.30;99.90;;;;;;5052688;28;20276;-73
2023/04/19 00:44:57;;;;;;;7.63;4.20;;;10.40;99.90;;;;;;5052526;28;20214;-73
2023/04/19 00:47:24;;;;;;;8.60;4.53;;;10.30;99.90;;;;;;5034655;28;20209;-74
2023/04/19 00:49:51;;;;;;;6.23;4.20;;;10.40;99.90;;;;;;5034919;28;20195;-73
2023/04/19 00:52:18;;;;;;;6.20;4.10;;;10.40;99.90;;;;;;5034797;28;20202;-74
2023/04/19 00:54:45;;;;;;;6.40;4.40;;;10.40;99.90;;;;;;5034688;28;20222;-74
2023/04/19 00:57:12;;;;;;;6.77;4.40;;;10.30;99.90;;;;;;5052463;28;20670;-73
2023/04/19 00:59:39;;;;;;;9.63;4.60;;;10.30;99.90;;;;;;5034595;28;20209;-75
2023/04/19 01:02:06;;;;;;;8.73;4.17;;;10.20;99.90;;;;;;5052255;28;20302;-76
2023/04/19 01:04:33;;;;;;;6.70;4.63;;;10.10;99.90;;;;;;5034879;28;20206;-73
2023/04/19 01:07:01;;;;;;;7.70;4.70;;;10.00;99.90;;;;;;5034608;28;20195;-74
2023/04/19 01:09:28;;;;;;;7.03;4.90;;;10.00;99.90;;;;;;5034481;28;20297;-73
2023/04/19 01:11:55;;;;;;;7.83;4.77;;;10.00;99.90;;;;;;5034921;28;20201;-73
2023/04/19 01:14:22;;;;;;;9.27;4.40;;;9.80;99.90;;;;;;5034686;28;20191;-74
2023/04/19 01:16:49;;;;;;;7.07;4.73;;;9.80;99.90;;;;;;5034587;28;20297;-77
2023/04/19 01:19:17;;;;;;;8.63;4.80;;;9.70;99.90;;;;;;5052229;28;20206;-74
2023/04/19 01:21:45;;;;;;;7.30;4.83;;;9.60;99.90;;;;;;5034411;28;20277;-74
2023/04/19 01:24:12;;;;;;;7.53;4.60;;;9.60;99.90;;;;;;5034141;28;20222;-73
2023/04/19 01:26:39;;;;;;;6.73;4.90;;;9.50;99.90;;;;;;5051928;28;20678;-74
2023/04/19 01:29:06;;;;;;;7.30;4.93;;;9.50;99.90;;;;;;5034136;28;20256;-74
2023/04/19 01:31:33;;;;;;;7.23;4.80;;;9.50;99.90;;;;;;5034014;28;20688;-74
2023/04/19 01:34:00;;;;;;;7.30;5.07;;;9.40;99.90;;;;;;5052069;28;20199;-75
2023/04/19 01:36:27;;;;;;;7.50;5.07;;;9.40;99.90;;;;;;5034226;28;20194;-75
2023/04/19 01:38:55;;;;;;;8.50;5.40;;;9.40;99.90;;;;;;5052095;28;20312;-74
2023/04/19 01:41:25;;;;;;;13.87;6.10;;;9.30;99.90;;;;;;5016864;28;20603;-75
2023/04/19 01:43:53;;;;;;;7.90;5.57;;;9.10;99.90;;;;;;5034199;28;20619;-77
2023/04/19 01:46:20;;;;;;;9.30;5.77;;;9.00;99.90;;;;;;5034461;28;20703;-73
2023/04/19 01:48:46;;;;;;;8.20;5.60;;;9.00;99.90;;;;;;5034224;28;20213;-73
2023/04/19 01:51:13;;;;;;;8.93;5.83;;;9.00;99.90;;;;;;5034376;28;20210;-73
2023/04/19 01:53:40;;;;;;;9.40;6.10;;;8.90;99.90;;;;;;5034049;28;20187;-77
2023/04/19 01:56:08;;;;;;;8.77;5.87;;;8.80;99.90;;;;;;5049332;28;20202;-73
2023/04/19 01:58:34;;;;;;;11.03;6.63;;;8.80;99.90;;;;;;5034182;28;20191;-73
2023/04/19 02:01:01;;;;;;;17.40;6.83;;;8.70;99.90;;;;;;5033513;28;20520;-74
2023/04/19 02:03:28;;;;;;;10.50;6.63;;;8.70;99.90;;;;;;5033718;28;20249;-72
2023/04/19 02:05:56;;;;;;;10.33;6.60;;;8.70;99.90;;;;;;5051707;28;20613;-73
2023/04/19 02:08:23;;;;;;;10.63;6.70;;;8.70;99.90;;;;;;5033776;28;20191;-72
2023/04/19 02:10:50;;;;;;;11.90;7.13;;;8.60;99.90;;;;;;5017320;28;20203;-72
2023/04/19 02:13:16;;;;;;;11.53;6.60;;;8.60;99.90;;;;;;5031539;28;20191;-70
2023/04/19 02:15:43;;;;;;;10.80;7.30;;;8.60;99.90;;;;;;5034182;28;20202;-71
2023/04/19 02:18:12;;;;;;;11.23;6.67;;;8.50;99.90;;;;;;5033946;28;20211;-73
2023/04/19 02:20:42;;;;;;;12.17;7.23;;;8.50;99.90;;;;;;5018271;28;20644;-74
2023/04/19 02:23:09;;;;;;;10.67;6.93;;;8.40;99.90;;;;;;5033990;28;20227;-76
2023/04/19 02:25:36;;;;;;;13.13;7.40;;;8.50;99.90;;;;;;5051798;28;20195;-76
2023/04/19 02:28:03;;;;;;;13.30;7.77;;;8.40;99.90;;;;;;5034305;28;20587;-77
2023/04/19 02:30:30;;;;;;;12.37;7.60;;;8.50;99.90;;;;;;5034689;28;20219;-74
2023/04/19 02:32:57;;;;;;;17.23;8.40;;;8.50;99.90;;;;;;5037335;28;20206;-74
2023/04/19 02:35:24;;;;;;;12.77;8.27;;;8.50;99.90;;;;;;5055305;28;20652;-75
2023/04/19 02:37:51;;;;;;;12.87;8.10;;;8.50;99.90;;;;;;5037336;28;20652;-75
2023/04/19 02:40:21;;;;;;;13.87;7.63;;;8.40;99.90;;;;;;5055302;28;20186;-75
2023/04/19 02:42:49;;;;;;;13.13;7.90;;;8.50;99.90;;;;;;5037522;28;20556;-73
2023/04/19 02:45:16;;;;;;;13.33;7.77;;;8.30;99.90;;;;;;5055103;28;20244;-72
2023/04/19 02:47:45;;;;;;;12.50;7.87;;;8.30;99.90;;;;;;5037033;28;20638;-73
2023/04/19 02:50:15;;;;;;;13.37;7.67;;;8.30;99.90;;;;;;5055034;28;20183;-76
2023/04/19 02:52:42;;;;;;;11.00;7.63;;;8.30;99.90;;;;;;5054963;28;20195;-73
2023/04/19 02:55:09;;;;;;;11.57;7.50;;;8.40;99.90;;;;;;5054862;28;20711;-72
2023/04/19 02:57:36;;;;;;;11.37;7.47;;;8.40;99.90;;;;;;5054689;28;20201;-72
2023/04/19 03:00:04;;;;;;;11.23;7.40;;;8.40;99.90;;;;;;5036817;28;20289;-72
2023/04/19 03:02:31;;;;;;;13.63;8.40;;;8.40;99.90;;;;;;5054790;28;20670;-72
2023/04/19 03:04:58;;;;;;;13.00;7.77;;;8.40;99.90;;;;;;5036925;28;20709;-71
2023/04/19 03:07:25;;;;;;;12.63;7.93;;;8.30;99.90;;;;;;5036742;28;20551;-74
2023/04/19 03:09:52;;;;;;;12.23;7.90;;;8.30;99.90;;;;;;5036753;28;20190;-75
2023/04/19 03:12:19;;;;;;;12.63;8.47;;;8.40;99.90;;;;;;5055080;28;20536;-74
2023/04/19 03:14:46;;;;;;;14.70;8.73;;;8.30;99.90;;;;;;5054509;28;20191;-74
2023/04/19 03:17:13;;;;;;;15.77;9.07;;;8.30;99.90;;;;;;5036503;28;20226;-73
2023/04/19 03:19:40;;;;;;;13.57;8.40;;;8.30;99.90;;;;;;5054451;28;20191;-73
2023/04/19 03:22:07;;;;;;;13.80;8.90;;;8.20;99.90;;;;;;5054228;28;20264;-74
2023/04/19 03:24:34;;;;;;;11.00;7.73;;;8.20;99.90;;;;;;5036618;28;20626;-71
2023/04/19 03:27:03;;;;;;;11.07;7.70;;;8.10;99.90;;;;;;5036582;28;20193;-71
2023/04/19 03:29:30;;;;;;;17.20;8.20;;;8.20;99.90;;;;;;5036421;28;20214;-71
2023/04/19 03:31:57;;;;;;;10.90;7.10;;;8.20;99.90;;;;;;5036178;28;20253;-71
2023/04/19 03:34:24;;;;;;;11.00;7.13;;;8.20;99.90;;;;;;5036129;28;20199;-74
2023/04/19 03:36:51;;;;;;;17.90;7.30;;;8.20;99.90;;;;;;5036143;28;20195;-73
2023/04/19 03:39:18;;;;;;;11.20;6.17;;;8.20;99.90;;;;;;5054215;28;20203;-75
2023/04/19 03:41:45;;;;;;;9.80;6.27;;;8.20;99.90;;;;;;5035231;28;20195;-75
2023/04/19 03:44:12;;;;;;;9.57;6.00;;;8.10;99.90;;;;;;5035757;28;20225;-74
2023/04/19 03:46:39;;;;;;;7.33;5.10;;;8.10;99.90;;;;;;5053760;28;20193;-76
2023/04/19 03:49:06;;;;;;;6.37;4.50;;;8.10;99.90;;;;;;5053907;28;20212;-79
2023/04/19 03:51:33;;;;;;;7.23;5.10;;;8.00;99.90;;;;;;5035819;28;20299;-71
2023/04/19 03:54:00;;;;;;;9.73;6.27;;;8.00;99.90;;;;;;5035810;28;20687;-71
2023/04/19 03:56:27;;;;;;;8.83;5.43;;;8.00;99.90;;;;;;5035613;28;20211;-70
2023/04/19 03:58:54;;;;;;;12.23;6.70;;;8.00;99.90;;;;;;5053888;28;20202;-70
2023/04/19 04:01:23;;;;;;;11.33;6.90;;;8.00;99.90;;;;;;5053570;28;20277;-70
2023/04/19 04:03:49;;;;;;;9.33;6.80;;;8.00;99.90;;;;;;5035629;28;20227;-70
2023/04/19 04:06:17;;;;;;;12.57;7.13;;;8.00;99.90;;;;;;5035797;28;20221;-70
2023/04/19 04:08:43;;;;;;;12.67;8.10;;;7.90;99.90;;;;;;5035522;28;20210;-70
2023/04/19 04:11:10;;;;;;;11.17;7.50;;;8.00;99.90;;;;;;5035404;28;20644;-71
2023/04/19 04:13:37;;;;;;;11.87;8.03;;;8.00;99.90;;;;;;5053354;28;20195;-72
2023/04/19 04:16:04;;;;;;;10.87;7.87;;;8.00;99.90;;;;;;5035282;28;20206;-75
2023/04/19 04:18:31;;;;;;;12.20;7.80;;;8.00;99.90;;;;;;5035270;28;20604;-71
2023/04/19 04:20:58;;;;;;;11.27;7.33;;;8.00;99.90;;;;;;5035454;28;20209;-70
2023/04/19 04:23:25;;;;;;;9.43;6.17;;;8.00;99.90;;;;;;5035310;28;20576;-70
2023/04/19 04:26:04;;;;;;;11.33;6.20;;;8.00;99.90;;;;;;5035194;28;20687;-70
2023/04/19 04:28:31;;;;;;;8.80;6.07;;;7.90;99.90;;;;;;5035223;28;20732;-70
2023/04/19 04:30:59;;;;;;;10.33;6.50;;;7.80;99.90;;;;;;5034977;28;20215;-70
2023/04/19 04:33:27;;;;;;;8.33;6.03;;;7.90;99.90;;;;;;5052971;28;20207;-70
2023/04/19 04:35:55;;;;;;;8.03;6.13;;;7.90;99.90;;;;;;5035278;28;20526;-71
2023/04/19 04:38:22;;;;;;;9.10;6.07;;;7.90;99.90;;;;;;5034792;28;20197;-71
2023/04/19 04:40:54;;;;;;;10.57;7.03;;;7.90;99.90;;;;;;5035023;28;20656;-70
2023/04/19 04:43:28;;;;;;;12.00;7.23;;;7.90;99.90;;;;;;5034776;28;20306;-70
2023/04/19 04:45:56;;;;;;;11.73;7.50;;;7.80;99.90;;;;;;5035265;28;20576;-71
2023/04/19 04:48:24;;;;;;;13.23;7.33;;;7.70;99.90;;;;;;5034731;28;20221;-70
2023/04/19 04:50:51;;;;;;;14.57;7.13;;;7.80;99.90;;;;;;5034220;28;20201;-70
2023/04/19 04:53:18;;;;;;;10.27;6.57;;;7.80;99.90;;;;;;5034390;28;20206;-72
2023/04/19 04:55:44;;;;;;;9.10;6.83;;;7.80;99.90;;;;;;5034538;28;20710;-70
2023/04/19 04:58:11;;;;;;;12.13;6.37;;;7.80;99.90;;;;;;5052512;28;20198;-70
2023/04/19 05:00:38;;;;;;;9.13;6.27;;;7.80;99.90;;;;;;5034542;28;20206;-70
2023/04/19 05:03:05;;;;;;;9.73;6.67;;;7.90;99.90;;;;;;5034788;28;20225;-70
2023/04/19 05:05:32;;;;;;;9.17;6.13;;;7.90;99.90;;;;;;5018187;28;20198;-70
2023/04/19 05:08:00;;;;;;;8.73;6.20;;;7.90;99.90;;;;;;5034701;28;20636;-70
2023/04/19 05:10:27;;;;;;;9.93;6.43;;;7.90;99.90;;;;;;5052515;28;20278;-70
2023/04/19 05:12:57;;;;;;;10.50;7.07;;;7.90;99.90;;;;;;5035019;28;20556;-70
2023/04/19 05:15:25;;;;;;;9.43;6.63;;;8.00;99.90;;;;;;5018950;28;20598;-70
2023/04/19 05:17:52;;;;;;;11.93;7.50;;;7.90;99.90;;;;;;5052175;28;20554;-70
2023/04/19 05:20:19;;;;;;;10.90;7.83;;;7.90;99.90;;;;;;5052651;28;20203;-74
2023/04/19 05:22:45;;;;;;;10.97;7.80;;;7.90;99.90;;;;;;5052083;28;20210;-73
2023/04/19 05:25:12;;;;;;;11.03;7.80;;;7.80;99.90;;;;;;5034447;28;20195;-78
2023/04/19 05:27:39;;;;;;;12.10;7.83;;;7.90;99.90;;;;;;5034350;28;20198;-74
2023/04/19 05:30:06;;;;;;;12.37;8.53;;;7.90;99.90;;;;;;5052074;28;20221;-76
2023/04/19 05:32:34;;;;;;;15.67;9.00;;;7.90;99.90;;;;;;5034146;28;20233;-71
2023/04/19 05:35:01;;;;;;;12.90;8.60;;;7.90;99.90;;;;;;5034341;28;20236;-72
2023/04/19 05:37:29;;;;;;;12.63;8.80;;;7.90;99.90;;;;;;5034137;28;20190;-76
2023/04/19 05:39:57;;;;;;;12.23;8.83;;;7.90;99.90;;;;;;5052255;28;20613;-74
2023/04/19 05:42:24;;;;;;;15.37;9.70;;;8.00;99.90;;;;;;5052509;28;20202;-76
2023/04/19 05:44:50;;;;;;;13.70;9.60;;;8.00;99.90;;;;;;5053122;28;20198;-74
2023/04/19 05:47:17;;;;;;;15.77;9.93;;;8.00;99.90;;;;;;5034462;28;20190;-76
2023/04/19 05:49:44;;;;;;;17.03;9.93;;;8.00;99.90;;;;;;5034466;28;20294;-74
2023/04/19 05:52:11;;;;;;;23.60;11.27;;;8.00;99.90;;;;;;5034265;28;20213;-71
2023/04/19 05:54:38;;;;;;;17.90;10.37;;;8.00;99.90;;;;;;5033728;28;20242;-76
2023/04/19 05:57:05;;;;;;;15.83;11.23;;;8.10;99.90;;;;;;5034166;28;20202;-72
2023/04/19 05:59:32;;;;;;;18.50;11.63;;;8.00;99.90;;;;;;5033561;28;20213;-72
2023/04/19 06:01:59;;;;;;;17.17;11.47;;;8.10;99.90;;;;;;5033428;28;20199;-71
2023/04/19 06:04:27;;;;;;;16.53;11.27;;;8.00;99.90;;;;;;5033935;28;20226;-73
2023/04/19 06:06:55;;;;;;;17.03;11.60;;;8.00;99.90;;;;;;5037309;28;20297;-76
2023/04/19 06:09:22;;;;;;;18.73;12.13;;;8.00;99.90;;;;;;5038236;28;20197;-76
2023/04/19 06:11:48;;;;;;;18.37;11.77;;;8.00;99.90;;;;;;5037870;28;20214;-74
2023/04/19 06:14:17;;;;;;;18.60;11.80;;;7.90;99.90;;;;;;5055766;28;20290;-75
2023/04/19 06:16:45;;;;;;;20.63;13.00;;;8.00;99.90;;;;;;5037630;28;20593;-73
2023/04/19 06:19:12;;;;;;;19.97;12.47;;;8.00;99.90;;;;;;5037628;28;20281;-73
2023/04/19 06:21:39;;;;;;;19.07;12.83;;;8.00;99.90;;;;;;5037364;28;20237;-72
2023/04/19 06:24:06;;;;;;;19.23;12.30;;;8.10;99.90;;;;;;5055618;28;20641;-72
2023/04/19 06:26:33;;;;;;;21.50;12.93;;;8.10;99.90;;;;;;5037726;28;20202;-74
2023/04/19 06:29:04;;;;;;;22.47;12.57;;;8.10;99.90;;;;;;5037468;28;20202;-73
2023/04/19 06:31:32;;;;;;;20.77;12.87;;;8.10;99.90;;;;;;5037407;28;20233;-75
2023/04/19 06:33:59;;;;;;;23.93;13.30;;;8.20;99.90;;;;;;5036618;28;20256;-75
2023/04/19 06:36:26;;;;;;;22.93;13.80;;;8.30;99.90;;;;;;5055082;28;20527;-73
2023/04/19 06:38:53;;;;;;;30.43;14.83;;;8.30;99.90;;;;;;5023039;28;20301;-73
2023/04/19 06:41:20;;;;;;;24.77;13.97;;;8.40;99.90;;;;;;5017890;28;20202;-73
2023/04/19 06:43:47;;;;;;;22.73;14.40;;;8.40;99.90;;;;;;5045875;28;20222;-71
2023/04/19 06:46:14;;;;;;;24.43;13.73;;;8.50;99.90;;;;;;5035974;28;20561;-73
2023/04/19 06:48:41;;;;;;;21.47;13.70;;;8.50;99.90;;;;;;5034663;28;20244;-77
2023/04/19 06:51:08;;;;;;;21.07;13.47;;;8.50;99.90;;;;;;5020828;28;20214;-74
2023/04/19 06:53:35;;;;;;;21.07;13.17;;;8.60;99.90;;;;;;5054841;28;20325;-81
2023/04/19 06:56:03;;;;;;;20.00;13.33;;;8.60;99.90;;;;;;5037012;28;20202;-73
2023/04/19 06:58:31;;;;;;;22.63;13.20;;;8.60;99.90;;;;;;5036966;28;20199;-72
2023/04/19 07:01:02;;;;;;;22.13;13.57;;;8.70;99.90;;;;;;5036843;28;20203;-71
2023/04/19 07:03:30;;;;;;;19.83;13.37;;;8.70;99.90;;;;;;5054777;28;20276;-70
2023/04/19 07:05:57;;;;;;;20.27;13.47;;;8.70;99.90;;;;;;5036726;28;20248;-70
2023/04/19 07:08:26;;;;;;;23.10;13.53;;;8.70;99.90;;;;;;5036654;28;20190;-70
2023/04/19 07:11:08;;;;;;;20.73;13.63;;;8.70;99.90;;;;;;5036816;28;20191;-71
2023/04/19 07:13:35;;;;;;;20.07;13.80;;;8.70;99.90;;;;;;5036926;28;20290;-70
2023/04/19 07:16:06;;;;;;;20.27;14.03;;;8.80;99.90;;;;;;5036373;28;20256;-73
2023/04/19 07:18:33;;;;;;;19.53;13.77;;;8.80;99.90;;;;;;5036564;28;20203;-70
2023/04/19 07:21:00;;;;;;;19.53;13.60;;;8.80;99.90;;;;;;5036539;28;20195;-75
2023/04/19 07:23:27;;;;;;;20.87;12.83;;;8.80;99.90;;;;;;5036365;28;20215;-73
2023/04/19 07:25:53;;;;;;;24.83;13.87;;;8.80;99.90;;;;;;5036556;28;20616;-74
2023/04/19 07:28:20;;;;;;;20.10;13.17;;;8.90;99.90;;;;;;5036477;28;20202;-77
2023/04/19 07:30:47;;;;;;;23.23;13.87;;;9.00;99.90;;;;;;5036166;28;20680;-76
2023/04/19 07:33:14;;;;;;;20.27;12.20;;;9.10;99.90;;;;;;5035962;28;20603;-76
2023/04/19 07:35:41;;;;;;;18.97;13.03;;;9.10;99.90;;;;;;5036521;28;20581;-74
2023/04/19 07:38:08;;;;;;;17.97;12.33;;;9.20;99.90;;;;;;5036174;28;20533;-74
2023/04/19 07:40:35;;;;;;;30.37;12.43;;;9.20;99.90;;;;;;5054396;28;20179;-73
2023/04/19 07:43:02;;;;;;;19.60;12.13;;;9.30;99.90;;;;;;5036182;28;20656;-70
2023/04/19 07:45:30;;;;;;;18.87;11.50;;;9.30;99.90;;;;;;5035922;28;20229;-70
2023/04/19 07:47:57;;;;;;;14.40;10.20;;;9.30;99.90;;;;;;5053696;28;20195;-70
2023/04/19 07:50:27;;;;;;;16.53;10.50;;;9.20;99.90;;;;;;5035909;28;20206;-70
2023/04/19 07:52:55;;;;;;;14.70;9.93;;;9.20;99.90;;;;;;5036064;28;20195;-70
2023/04/19 07:55:22;;;;;;;17.27;10.47;;;9.10;99.90;;;;;;5053508;28;20310;-75
2023/04/19 07:57:49;;;;;;;18.40;10.37;;;9.10;99.90;;;;;;5035738;28;20244;-70
2023/04/19 08:00:20;;;;;;;16.60;11.07;;;9.10;99.90;;;;;;5053416;28;20281;-69
2023/04/19 08:02:48;;;;;;;16.77;10.97;;;9.10;99.90;;;;;;5035325;28;20194;-71
2023/04/19 08:05:18;;;;;;;16.03;10.47;;;9.20;99.90;;;;;;5035588;28;20214;-69
2023/04/19 08:07:46;;;;;;;17.60;10.80;;;9.20;99.90;;;;;;5053201;28;20199;-72
2023/04/19 08:10:13;;;;;;;15.77;10.73;;;9.20;99.90;;;;;;5053416;28;20591;-71
2023/04/19 08:12:40;;;;;;;15.33;10.23;;;9.20;99.90;;;;;;5035323;28;20202;-73
2023/04/19 08:15:27;;;;;;;15.43;10.17;;;9.20;99.90;;;;;;5035459;28;20648;-69
2023/04/19 08:18:14;;;;;;;14.87;9.83;;;9.20;99.90;;;;;;5035274;28;20268;-72
2023/04/19 08:20:45;;;;;;;15.43;9.77;;;9.20;99.90;;;;;;5035868;28;20249;-68
2023/04/19 08:23:12;;;;;;;14.30;9.83;;;9.40;99.90;;;;;;5035302;28;20195;-72
2023/04/19 08:25:50;;;;;;;14.80;10.03;;;9.40;99.90;;;;;;5035674;28;20203;-69
2023/04/19 08:28:18;;;;;;;13.80;9.43;;;9.50;99.90;;;;;;5052852;28;20191;-71
2023/04/19 08:30:45;;;;;;;14.17;9.53;;;9.50;99.90;;;;;;5035217;28;20210;-70
2023/04/19 08:33:12;;;;;;;18.53;10.27;;;9.60;99.90;;;;;;5034973;28;20648;-70
2023/04/19 08:35:40;;;;;;;14.20;9.80;;;9.70;99.90;;;;;;5035241;28;20198;-70
2023/04/19 08:38:08;;;;;;;17.90;10.70;;;9.70;99.90;;;;;;5035241;28;20194;-71
2023/04/19 08:40:39;;;;;;;15.93;10.30;;;9.80;99.90;;;;;;5035458;28;20195;-71
2023/04/19 08:43:06;;;;;;;13.30;9.27;;;9.90;99.90;;;;;;5035039;28;20206;-72
2023/04/19 08:45:34;;;;;;;18.80;9.97;;;9.80;99.90;;;;;;5035414;28;20348;-70
2023/04/19 08:48:02;;;;;;;13.83;9.17;;;9.90;99.90;;;;;;5035883;28;20199;-70
2023/04/19 08:50:30;;;;;;;14.00;8.60;;;9.90;99.90;;;;;;5035952;28;20203;-70
2023/04/19 08:53:11;;;;;;;15.90;9.87;;;9.90;99.90;;;;;;5035739;28;20633;-69
2023/04/19 08:55:45;;;;;;;14.57;9.67;;;9.90;99.90;;;;;;5052805;28;20233;-69
2023/04/19 08:58:32;;;;;;;13.20;9.00;;;10.00;99.90;;;;;;5034825;28;20191;-70
2023/04/19 09:01:06;;;;;;;13.97;9.00;;;10.10;99.90;;;;;;5034735;28;20183;-72
2023/04/19 09:03:43;;;;;;;14.17;9.03;;;10.20;99.90;;;;;;5052375;28;20207;-71
2023/04/19 09:06:30;;;;;;;15.23;9.27;;;10.30;99.90;;;;;;5034852;28;20190;-71
2023/04/19 09:09:18;;;;;;;12.13;8.60;;;10.40;99.90;;;;;;5034537;28;20194;-71
2023/04/19 09:12:03;;;;;;;15.40;8.83;;;10.40;99.90;;;;;;5035213;28;20202;-72
2023/04/19 09:14:29;;;;;;;16.80;8.43;;;10.50;99.90;;;;;;5034602;28;20199;-70
2023/04/19 09:17:15;;;;;;;12.70;7.53;;;10.50;99.90;;;;;;5052051;28;20197;-70
2023/04/19 09:19:48;;;;;;;11.67;8.00;;;10.60;99.90;;;;;;5034373;28;20718;-74
2023/04/19 09:22:16;;;;;;;12.97;8.10;;;10.50;99.90;;;;;;5052569;28;20200;-74
2023/04/19 09:24:44;;;;;;;10.70;7.27;;;10.60;99.90;;;;;;5034422;28;20766;-70
2023/04/19 09:27:30;;;;;;;13.73;8.30;;;10.60;99.90;;;;;;5034129;28;20190;-71
2023/04/19 09:29:59;;;;;;;9.47;6.93;;;10.60;99.90;;;;;;5034128;28;20287;-75
2023/04/19 09:32:27;;;;;;;13.10;7.87;;;10.60;99.90;;;;;;5052212;28;20202;-72
2023/04/19 09:35:01;;;;;;;10.27;7.57;;;10.60;99.90;;;;;;5034221;28;20195;-72
2023/04/19 09:37:29;;;;;;;14.07;8.03;;;10.70;99.90;;;;;;5034217;28;20294;-76
2023/04/19 09:40:21;;;;;;;13.47;7.87;;;10.70;99.90;;;;;;5052664;28;20203;-75
2023/04/19 09:42:49;;;;;;;11.00;7.20;;;10.70;99.90;;;;;;5038447;28;20191;-74
2023/04/19 09:45:18;;;;;;;9.97;7.37;;;10.60;99.90;;;;;;5056448;28;20214;-77
2023/04/19 09:48:03;;;;;;;12.60;7.53;;;10.70;99.90;;;;;;5038582;28;20312;-80
2023/04/19 09:50:30;;;;;;;14.80;8.00;;;10.60;99.90;;;;;;5056767;28;20190;-81
2023/04/19 09:53:00;;;;;;;12.40;7.40;;;10.50;99.90;;;;;;5038486;28;20202;-82
2023/04/19 09:55:27;;;;;;;13.13;8.00;;;10.50;99.90;;;;;;5038444;28;20230;-86
2023/04/19 09:57:59;;;;;;;12.37;8.10;;;10.40;99.90;;;;;;5038898;28;20195;-83
2023/04/19 10:00:26;;;;;;;13.23;8.43;;;10.40;99.90;;;;;;5056693;28;20273;-82
2023/04/19 10:02:59;;;;;;;11.77;7.63;;;10.40;99.90;;;;;;5056976;28;20191;-83
2023/04/19 10:05:26;;;;;;;10.53;7.93;;;10.40;99.90;;;;;;5056949;28;20246;-82
2023/04/19 10:07:58;;;;;;;13.50;8.33;;;10.40;99.90;;;;;;5038757;28;20198;-80
2023/04/19 10:10:28;;;;;;;11.17;8.20;;;10.40;99.90;;;;;;5054710;28;20194;-74
2023/04/19 10:12:59;;;;;;;12.10;8.47;;;10.40;99.90;;;;;;5037442;28;20182;-73
2023/04/19 10:15:46;;;;;;;14.90;8.60;;;10.40;99.90;;;;;;5055553;28;20299;-74
2023/04/19 10:18:21;;;;;;;14.00;9.03;;;10.40;99.90;;;;;;5037486;28;20194;-73
2023/04/19 10:20:59;;;;;;;12.07;8.40;;;10.40;99.90;;;;;;5038274;28;20191;-76
2023/04/19 10:23:28;;;;;;;12.97;8.13;;;10.40;99.90;;;;;;5037379;28;20237;-74
2023/04/19 10:25:56;;;;;;;11.00;8.27;;;10.40;99.90;;;;;;5037251;28;20211;-75
2023/04/19 10:28:24;;;;;;;11.43;8.20;;;10.30;99.90;;;;;;5037398;28;20214;-75
2023/04/19 10:31:04;;;;;;;12.20;8.20;;;10.30;99.90;;;;;;5204336;23;20239;-74
2023/04/19 10:33:35;;;;;;;14.87;8.43;;;10.30;99.90;;;;;;5017228;28;20286;-76
2023/04/19 10:36:02;;;;;;;14.40;8.77;;;10.40;99.90;;;;;;5017580;28;20218;-77
2023/04/19 10:38:50;;;;;;;19.90;9.57;;;10.40;99.90;;;;;;5035324;28;20204;-76
2023/04/19 10:41:18;;;;;;;14.77;9.17;;;10.50;99.90;;;;;;5017516;28;20571;-75
2023/04/19 10:44:06;;;;;;;17.23;8.83;;;10.60;99.90;;;;;;5035277;28;20251;-73
2023/04/19 10:46:34;;;;;;;12.10;8.23;;;10.60;99.90;;;;;;5017413;28;20203;-72
2023/04/19 10:49:04;;;;;;;13.23;8.50;;;10.70;99.90;;;;;;5017530;28;20520;-73
2023/04/19 10:51:35;;;;;;;19.90;9.27;;;10.70;99.90;;;;;;5034588;28;20566;-73
2023/04/19 10:54:08;;;;;;;12.30;8.47;;;10.80;99.90;;;;;;5017428;28;20626;-73
2023/04/19 10:56:34;;;;;;;13.00;8.30;;;10.70;99.90;;;;;;5016798;28;20618;-74
2023/04/19 11:01:36;;;;;;;14.87;9.53;;;10.70;99.90;;;;;;5017004;28;20589;-74
2023/04/19 11:04:12;;;;;;;13.97;9.10;;;10.70;99.90;;;;;;5017088;28;20198;-73
2023/04/19 11:06:52;;;;;;;15.83;8.90;;;10.80;99.90;;;;;;5016635;28;20282;-72
2023/04/19 11:09:23;;;;;;;17.67;8.80;;;10.80;99.90;;;;;;5016689;28;20191;-71
2023/04/19 11:11:56;;;;;;;17.73;9.40;;;11.00;99.90;;;;;;5017040;28;20585;-72
2023/04/19 11:14:25;;;;;;;16.67;8.70;;;11.10;99.90;;;;;;5017026;28;20183;-72
2023/04/19 11:16:53;;;;;;;16.57;9.03;;;11.20;99.90;;;;;;5014085;28;20188;-72
2023/04/19 11:19:20;;;;;;;17.00;9.03;;;11.40;99.90;;;;;;5015075;28;20203;-73
2023/04/19 11:21:48;;;;;;;13.57;8.73;;;11.50;99.90;;;;;;5014500;28;20188;-74
2023/04/19 11:24:17;;;;;;;20.60;9.53;;;11.70;99.90;;;;;;4996900;28;20278;-73
2023/04/19 11:26:45;;;;;;;12.67;8.77;;;12.00;99.90;;;;;;5014502;28;20223;-72
2023/04/19 11:29:13;;;;;;;14.23;8.33;;;12.30;99.90;;;;;;4997258;28;20231;-75
2023/04/19 11:31:45;;;;;;;15.43;8.70;;;12.70;99.90;;;;;;4996356;28;20255;-73
2023/04/19 11:34:12;;;;;;;10.23;7.57;;;13.00;99.90;;;;;;4996752;28;20227;-74
2023/04/19 11:36:50;;;;;;;10.77;7.70;;;13.30;99.90;;;;;;4996720;28;20204;-75
2023/04/19 11:39:21;;;;;;;12.17;7.50;;;13.60;99.90;;;;;;5014433;28;20745;-73
2023/04/19 11:41:49;;;;;;;11.10;7.33;;;14.00;99.90;;;;;;5014337;28;20520;-74
2023/04/19 11:44:21;;;;;;;11.50;7.60;;;14.30;99.90;;;;;;5014219;28;20192;-74
2023/04/19 11:46:58;;;;;;;13.60;7.90;;;14.30;99.90;;;;;;5014033;28;20185;-73
2023/04/19 11:49:27;;;;;;;10.87;7.27;;;14.60;99.90;;;;;;5014393;28;20270;-75
2023/04/19 11:52:01;;;;;;;14.07;7.83;;;14.90;99.90;;;;;;4980420;28;20224;-76
2023/04/19 11:54:32;;;;;;;10.60;7.47;;;15.20;99.90;;;;;;5014205;28;20604;-75
2023/04/19 11:57:06;;;;;;;10.57;7.23;;;15.60;99.90;;;;;;4996402;28;20247;-77
2023/04/19 11:59:35;;;;;;;12.07;7.20;;;15.90;99.90;;;;;;4996672;28;20196;-79
2023/04/19 12:02:10;;;;;;;9.67;7.00;;;16.00;99.90;;;;;;4995986;28;20239;-80
2023/04/19 12:04:38;;;;;;;11.93;6.73;;;16.00;99.90;;;;;;5013107;28;20318;-78
2023/04/19 12:07:05;;;;;;;11.50;6.63;;;15.80;99.90;;;;;;5014211;28;20203;-80
2023/04/19 12:09:34;;;;;;;7.87;6.03;;;15.80;99.90;;;;;;4979888;28;20207;-78
2023/04/19 12:12:02;;;;;;;12.20;6.73;;;15.60;99.90;;;;;;4996538;28;20688;-78
2023/04/19 12:14:30;;;;;;;9.53;6.27;;;15.50;99.90;;;;;;5013433;28;20192;-78
2023/04/19 12:17:08;;;;;;;10.70;6.50;;;15.50;99.90;;;;;;5001942;28;20192;-77
2023/04/19 12:19:46;;;;;;;10.70;6.53;;;15.40;99.90;;;;;;5015621;28;20203;-78
2023/04/19 12:22:15;;;;;;;9.00;6.07;;;15.30;99.90;;;;;;5015524;28;20199;-78
2023/04/19 12:24:42;;;;;;;9.53;6.20;;;15.20;99.90;;;;;;5015517;28;20220;-78
2023/04/19 12:27:10;;;;;;;10.10;6.53;;;15.10;99.90;;;;;;5015470;28;20195;-77
2023/04/19 12:29:38;;;;;;;9.20;6.30;;;15.00;99.90;;;;;;5015298;28;20234;-78
2023/04/19 12:32:05;;;;;;;8.13;6.27;;;14.80;99.90;;;;;;5015012;28;20245;-76
2023/04/19 12:34:32;;;;;;;8.43;6.10;;;14.50;99.90;;;;;;5015430;28;20290;-74
2023/04/19 12:37:01;;;;;;;19.17;6.80;;;14.40;99.90;;;;;;5015762;28;20200;-76
2023/04/19 12:39:28;;;;;;;8.77;6.20;;;14.20;99.90;;;;;;5015569;28;20230;-78
2023/04/19 12:41:56;;;;;;;7.67;5.97;;;14.10;99.90;;;;;;5014850;28;20199;-77
2023/04/19 12:44:26;;;;;;;12.47;6.17;;;13.90;99.90;;;;;;5032919;28;20183;-77
2023/04/19 12:46:56;;;;;;;9.53;6.07;;;13.80;99.90;;;;;;5032931;28;20205;-78
2023/04/19 12:49:23;;;;;;;8.97;6.20;;;13.60;99.90;;;;;;5015174;28;20203;-75
2023/04/19 12:51:50;;;;;;;8.50;5.80;;;13.60;99.90;;;;;;5015079;28;20199;-77
2023/04/19 12:54:17;;;;;;;9.53;6.23;;;13.50;99.90;;;;;;5015151;28;20644;-76